Time;durP1;ratioP1;P1;durP2;ratioP2;P2;SDS_P1;SDS_P2;PMS_P1;PMS_P2;Temp;Humidity;BMP_temperature;BMP_pressure;BME280_temperature;BME280_humidity;BME280_pressure;Samples;Min_cycle;Max_cycle;Signal;HPM_P1;HPM_P2
2021/10/11 00:02:18;;;;;;;22.17;19.70;;;1.60;99.90;;;;;;5032187;28;20370;-84
2021/10/11 00:04:43;;;;;;;20.80;18.70;;;1.60;99.90;;;;;;5039070;28;20734;-84
2021/10/11 00:07:09;;;;;;;21.77;19.00;;;1.60;99.90;;;;;;5034201;28;20433;-84
2021/10/11 00:09:35;;;;;;;21.33;19.13;;;1.60;99.90;;;;;;5052220;28;20403;-84
2021/10/11 00:12:02;;;;;;;21.38;19.17;;;1.60;99.90;;;;;;5051611;28;20388;-84
2021/10/11 00:14:28;;;;;;;22.35;20.02;;;1.60;99.90;;;;;;5027239;28;20395;-84
2021/10/11 00:16:53;;;;;;;21.92;19.63;;;1.60;99.90;;;;;;5032506;28;20365;-85
2021/10/11 00:19:19;;;;;;;23.05;20.25;;;1.60;99.90;;;;;;5031350;28;20409;-84
2021/10/11 00:21:45;;;;;;;22.10;19.80;;;1.60;99.90;;;;;;5031440;28;20389;-84
2021/10/11 00:24:11;;;;;;;21.08;18.88;;;1.50;99.90;;;;;;5026319;28;20386;-84
2021/10/11 00:26:37;;;;;;;23.13;20.70;;;1.60;99.90;;;;;;5026823;28;20916;-84
2021/10/11 00:29:03;;;;;;;22.90;20.07;;;1.50;99.90;;;;;;5034173;28;20571;-84
2021/10/11 00:31:29;;;;;;;24.27;21.20;;;1.50;99.90;;;;;;5034288;28;20376;-84
2021/10/11 00:33:56;;;;;;;23.10;20.60;;;1.50;99.90;;;;;;5046614;28;20436;-84
2021/10/11 00:36:22;;;;;;;24.70;21.08;;;1.50;99.90;;;;;;5032373;28;20366;-84
2021/10/11 00:38:48;;;;;;;23.02;20.60;;;1.50;99.90;;;;;;5032232;28;20390;-84
2021/10/11 00:41:13;;;;;;;22.65;20.42;;;1.50;99.90;;;;;;5032306;28;20392;-84
2021/10/11 00:43:39;;;;;;;23.67;21.20;;;1.50;99.90;;;;;;5021987;28;20384;-84
2021/10/11 00:46:06;;;;;;;24.40;21.80;;;1.50;99.90;;;;;;5034319;28;20365;-84
2021/10/11 00:48:31;;;;;;;25.90;21.75;;;1.50;99.90;;;;;;5050548;28;20454;-84
2021/10/11 00:50:57;;;;;;;23.43;21.13;;;1.50;99.90;;;;;;5042099;28;20381;-85
2021/10/11 00:53:24;;;;;;;24.17;21.67;;;1.50;99.90;;;;;;5014732;28;20451;-85
2021/10/11 00:55:49;;;;;;;23.92;21.42;;;1.50;99.90;;;;;;5014775;28;20429;-84
2021/10/11 00:58:15;;;;;;;23.00;20.60;;;1.50;99.90;;;;;;5021023;28;20920;-85
2021/10/11 01:00:41;;;;;;;23.03;20.63;;;1.50;99.90;;;;;;5052290;28;20429;-84
2021/10/11 01:03:07;;;;;;;23.45;21.00;;;1.40;99.90;;;;;;5034574;28;20881;-84
2021/10/11 01:05:32;;;;;;;22.88;20.58;;;1.40;99.90;;;;;;5053251;28;20372;-84
2021/10/11 01:07:58;;;;;;;24.13;21.57;;;1.40;99.90;;;;;;5030413;28;20458;-85
2021/10/11 01:10:24;;;;;;;23.38;20.98;;;1.40;99.90;;;;;;5014802;28;20385;-85
2021/10/11 01:12:50;;;;;;;23.23;20.83;;;1.40;99.90;;;;;;5013947;28;20497;-85
2021/10/11 01:15:15;;;;;;;22.13;19.83;;;1.40;99.90;;;;;;5014572;28;20409;-84
2021/10/11 01:17:41;;;;;;;23.27;20.80;;;1.40;99.90;;;;;;5015311;28;20855;-84
2021/10/11 01:20:07;;;;;;;22.67;20.27;;;1.50;99.90;;;;;;5034662;28;20380;-85
2021/10/11 01:22:39;;;;;;;22.50;20.20;;;1.50;99.90;;;;;;5051603;28;20426;-85
2021/10/11 01:25:07;;;;;;;21.92;19.67;;;1.50;99.90;;;;;;5036054;28;20866;-84
2021/10/11 01:27:32;;;;;;;22.30;20.00;;;1.50;99.90;;;;;;5033800;28;20393;-84
2021/10/11 01:29:58;;;;;;;22.33;20.13;;;1.60;99.90;;;;;;5032333;28;20373;-84
2021/10/11 01:32:24;;;;;;;23.42;20.83;;;1.60;99.90;;;;;;5015112;28;20385;-85
2021/10/11 01:34:50;;;;;;;22.63;20.25;;;1.60;99.90;;;;;;5015647;28;20393;-84
2021/10/11 01:37:16;;;;;;;22.55;20.17;;;1.70;99.90;;;;;;5017498;28;20386;-85
2021/10/11 01:39:42;;;;;;;23.67;21.25;;;1.70;99.90;;;;;;5034545;28;20876;-85
2021/10/11 01:42:08;;;;;;;23.83;21.33;;;1.70;99.90;;;;;;5033645;28;20387;-85
2021/10/11 01:44:34;;;;;;;22.50;20.30;;;1.70;99.90;;;;;;5052160;28;20364;-85
2021/10/11 01:47:00;;;;;;;23.10;20.70;;;1.80;99.90;;;;;;5050817;28;20368;-85
2021/10/11 01:49:25;;;;;;;23.47;21.00;;;1.80;99.90;;;;;;5014006;28;20440;-84
2021/10/11 01:51:51;;;;;;;22.60;20.20;;;1.90;99.90;;;;;;5017070;28;20472;-84
2021/10/11 01:54:17;;;;;;;24.60;22.00;;;1.90;99.90;;;;;;5019956;28;20382;-83
2021/10/11 01:56:42;;;;;;;26.60;23.83;;;1.90;99.90;;;;;;5036824;28;20916;-84
2021/10/11 01:59:08;;;;;;;26.52;23.73;;;2.00;99.90;;;;;;5051530;28;20387;-85
2021/10/11 02:01:34;;;;;;;26.60;23.83;;;2.00;99.90;;;;;;5033868;28;20395;-85
2021/10/11 02:03:59;;;;;;;25.90;23.30;;;2.10;99.90;;;;;;5032611;28;20443;-84
2021/10/11 02:06:25;;;;;;;25.20;22.50;;;2.10;99.90;;;;;;5051230;28;20429;-85
2021/10/11 02:08:51;;;;;;;23.87;21.37;;;2.20;99.90;;;;;;5031984;28;20441;-84
2021/10/11 02:11:16;;;;;;;25.00;22.40;;;2.20;99.90;;;;;;5032196;28;20387;-85
2021/10/11 02:13:42;;;;;;;24.00;21.50;;;2.20;99.90;;;;;;5032971;28;20391;-85
2021/10/11 02:16:07;;;;;;;23.35;21.05;;;2.30;99.90;;;;;;5033165;28;20494;-85
2021/10/11 02:18:33;;;;;;;24.45;21.98;;;2.40;99.90;;;;;;5033519;28;20389;-85
2021/10/11 02:20:59;;;;;;;23.77;21.27;;;2.40;99.90;;;;;;5031378;28;20737;-85
2021/10/11 02:23:26;;;;;;;22.63;20.33;;;2.40;99.90;;;;;;5019336;28;20383;-85
2021/10/11 02:25:51;;;;;;;24.73;22.15;;;2.50;99.90;;;;;;5032696;28;20514;-85
2021/10/11 02:28:17;;;;;;;24.67;22.13;;;2.60;99.90;;;;;;5018933;28;20491;-85
2021/10/11 02:30:42;;;;;;;23.50;21.10;;;2.60;99.90;;;;;;5032735;28;20384;-85
2021/10/11 02:33:08;;;;;;;27.95;23.58;;;2.70;99.90;;;;;;5050356;28;20745;-85
2021/10/11 02:35:33;;;;;;;26.37;23.00;;;2.70;99.90;;;;;;5032520;28;20380;-85
2021/10/11 02:37:59;;;;;;;24.83;22.23;;;2.80;99.90;;;;;;5033245;28;20393;-85
2021/10/11 02:40:25;;;;;;;24.53;21.73;;;2.80;99.90;;;;;;5012760;28;20381;-84
2021/10/11 02:42:50;;;;;;;24.70;22.08;;;2.90;99.90;;;;;;5030641;28;20395;-85
2021/10/11 02:45:16;;;;;;;25.95;23.10;;;3.00;99.90;;;;;;5013984;28;20476;-86
2021/10/11 02:47:42;;;;;;;24.70;22.17;;;3.00;99.90;;;;;;5012576;28;20385;-85
2021/10/11 02:50:07;;;;;;;26.30;23.53;;;3.00;99.90;;;;;;5012456;28;20950;-85
2021/10/11 02:52:33;;;;;;;25.73;22.93;;;3.00;99.90;;;;;;5030043;28;20381;-85
2021/10/11 02:55:04;;;;;;;25.50;22.90;;;3.10;99.90;;;;;;5012416;28;20381;-85
2021/10/11 02:57:29;;;;;;;25.25;22.65;;;3.10;99.90;;;;;;5048971;28;20479;-85
2021/10/11 02:59:55;;;;;;;25.38;22.67;;;3.10;99.90;;;;;;5050200;28;20458;-84
2021/10/11 03:02:21;;;;;;;26.00;23.30;;;3.10;99.90;;;;;;5032631;28;20374;-85
2021/10/11 03:04:47;;;;;;;25.38;22.63;;;3.20;99.90;;;;;;5032213;28;20909;-85
2021/10/11 03:07:13;;;;;;;25.30;22.60;;;3.20;99.90;;;;;;5014554;28;20432;-85
2021/10/11 03:09:39;;;;;;;24.23;21.73;;;3.30;99.90;;;;;;5012363;28;20907;-85
2021/10/11 03:12:04;;;;;;;26.53;23.43;;;3.30;99.90;;;;;;5012422;28;20459;-85
2021/10/11 03:14:31;;;;;;;24.58;22.05;;;3.40;99.90;;;;;;5027878;28;20380;-85
2021/10/11 03:16:57;;;;;;;26.10;22.95;;;3.50;99.90;;;;;;5032274;28;20483;-85
2021/10/11 03:19:23;;;;;;;24.07;21.57;;;3.50;99.90;;;;;;5016956;28;20461;-85
2021/10/11 03:21:48;;;;;;;29.10;24.35;;;3.50;99.90;;;;;;5012299;28;20882;-85
2021/10/11 03:24:14;;;;;;;28.10;24.42;;;3.60;99.90;;;;;;5043195;28;20379;-85
2021/10/11 03:26:39;;;;;;;27.92;24.05;;;3.60;99.90;;;;;;5032009;28;20379;-85
2021/10/11 03:29:05;;;;;;;27.47;24.47;;;3.70;99.90;;;;;;5049460;28;20400;-85
2021/10/11 03:31:31;;;;;;;27.73;24.07;;;3.80;99.90;;;;;;5032098;28;20877;-85
2021/10/11 03:33:56;;;;;;;29.35;24.42;;;3.70;99.90;;;;;;5039776;28;20717;-85
2021/10/11 03:36:22;;;;;;;25.75;23.05;;;3.80;99.90;;;;;;5015754;28;20374;-85
2021/10/11 03:38:47;;;;;;;26.37;22.80;;;3.80;99.90;;;;;;5033648;28;20424;-85
2021/10/11 03:41:13;;;;;;;31.93;24.23;;;3.80;99.90;;;;;;5015886;28;20879;-85
2021/10/11 03:43:38;;;;;;;28.02;24.65;;;3.80;99.90;;;;;;5033358;28;20381;-85
2021/10/11 03:46:05;;;;;;;27.75;24.75;;;3.80;99.90;;;;;;5033242;28;20878;-85
2021/10/11 03:48:31;;;;;;;26.63;23.75;;;3.90;99.90;;;;;;5015570;28;20919;-85
2021/10/11 03:50:57;;;;;;;28.73;24.90;;;3.90;99.90;;;;;;5041602;28;20447;-85
2021/10/11 03:53:22;;;;;;;29.00;26.03;;;3.80;99.90;;;;;;5051204;28;20478;-85
2021/10/11 03:55:48;;;;;;;27.53;24.60;;;3.80;99.90;;;;;;5035488;28;20376;-85
2021/10/11 03:58:13;;;;;;;27.25;24.23;;;3.90;99.90;;;;;;5040906;28;20386;-85
2021/10/11 04:00:39;;;;;;;27.90;24.90;;;3.90;99.90;;;;;;5015390;28;20378;-85
2021/10/11 04:03:07;;;;;;;29.60;25.93;;;3.90;99.90;;;;;;5032680;28;20453;-84
2021/10/11 04:05:32;;;;;;;29.23;25.88;;;3.90;99.90;;;;;;5014438;28;20381;-84
2021/10/11 04:08:04;;;;;;;27.70;24.73;;;4.00;99.90;;;;;;5041511;28;20909;-85
2021/10/11 04:10:34;;;;;;;29.70;25.57;;;4.00;99.90;;;;;;5034921;28;20812;-84
2021/10/11 04:13:05;;;;;;;27.10;24.30;;;4.00;99.90;;;;;;5034158;28;20445;-84
2021/10/11 04:15:30;;;;;;;27.65;24.67;;;4.10;99.90;;;;;;5049062;28;20867;-85
2021/10/11 04:17:56;;;;;;;27.30;24.30;;;4.10;99.90;;;;;;5034709;28;20380;-85
2021/10/11 04:20:22;;;;;;;25.03;22.43;;;4.10;99.90;;;;;;5034904;28;20390;-84
2021/10/11 04:22:48;;;;;;;28.17;25.17;;;4.10;99.90;;;;;;5034758;28;20368;-85
2021/10/11 04:25:14;;;;;;;31.07;25.77;;;4.10;99.90;;;;;;5035091;28;20895;-85
2021/10/11 04:27:39;;;;;;;27.03;24.20;;;4.10;99.90;;;;;;5020899;28;20471;-85
2021/10/11 04:30:07;;;;;;;27.60;24.60;;;4.10;99.90;;;;;;5031486;28;20859;-85
2021/10/11 04:32:33;;;;;;;30.15;26.58;;;4.10;99.90;;;;;;5031361;28;20378;-85
2021/10/11 04:34:59;;;;;;;29.77;24.35;;;4.10;99.90;;;;;;5030944;28;20393;-85
2021/10/11 04:37:25;;;;;;;30.40;25.67;;;4.10;99.90;;;;;;5021431;28;20385;-84
2021/10/11 04:39:51;;;;;;;27.80;24.30;;;4.10;99.90;;;;;;5025015;28;20432;-85
2021/10/11 04:42:16;;;;;;;29.00;25.73;;;4.10;99.90;;;;;;5015582;28;20381;-84
2021/10/11 04:44:42;;;;;;;30.17;25.43;;;4.00;99.90;;;;;;5032536;28;20381;-86
2021/10/11 04:47:08;;;;;;;28.83;25.73;;;4.10;99.90;;;;;;5023617;28;20424;-85
2021/10/11 04:49:33;;;;;;;27.80;24.83;;;4.00;99.90;;;;;;5032284;28;20484;-85
2021/10/11 04:51:59;;;;;;;29.33;26.15;;;4.00;99.90;;;;;;5014333;28;20389;-85
2021/10/11 04:54:24;;;;;;;27.80;24.80;;;4.00;99.90;;;;;;5030210;28;20834;-84
2021/10/11 04:56:50;;;;;;;27.43;24.43;;;4.10;99.90;;;;;;5034177;28;20398;-84
2021/10/11 04:59:16;;;;;;;28.52;25.23;;;4.10;99.90;;;;;;5051982;28;20386;-85
2021/10/11 05:01:41;;;;;;;26.40;23.60;;;4.10;99.90;;;;;;5034542;28;20378;-85
2021/10/11 05:04:07;;;;;;;30.10;25.43;;;4.20;99.90;;;;;;5021655;28;20377;-84
2021/10/11 05:06:32;;;;;;;28.63;25.50;;;4.20;99.90;;;;;;5015955;28;20374;-85
2021/10/11 05:09:00;;;;;;;27.65;24.65;;;4.20;99.90;;;;;;5033285;28;20736;-85
2021/10/11 05:11:29;;;;;;;29.98;24.27;;;4.20;99.90;;;;;;5046967;28;20932;-84
2021/10/11 05:13:56;;;;;;;30.83;25.10;;;4.30;99.90;;;;;;5035855;28;20463;-85
2021/10/11 05:16:22;;;;;;;27.50;24.60;;;4.30;99.90;;;;;;5035518;28;20444;-85
2021/10/11 05:18:48;;;;;;;28.00;23.05;;;4.40;99.90;;;;;;5053493;28;20364;-86
2021/10/11 05:21:14;;;;;;;28.90;25.73;;;4.40;99.90;;;;;;5054814;28;20466;-84
2021/10/11 05:23:39;;;;;;;30.95;25.13;;;4.40;99.90;;;;;;5035617;28;20957;-84
2021/10/11 05:26:05;;;;;;;36.08;26.48;;;4.40;99.90;;;;;;5022185;28;20385;-85
2021/10/11 05:28:30;;;;;;;30.23;26.73;;;4.40;99.90;;;;;;5032830;28;20408;-85
2021/10/11 05:30:56;;;;;;;28.33;24.93;;;4.40;99.90;;;;;;5031389;28;20394;-85
2021/10/11 05:33:22;;;;;;;29.20;25.87;;;4.40;99.90;;;;;;5057374;28;20379;-84
2021/10/11 05:35:50;;;;;;;30.35;27.08;;;4.50;99.90;;;;;;5033242;28;20376;-85
2021/10/11 05:38:16;;;;;;;33.75;27.88;;;4.50;99.90;;;;;;5050928;28;20376;-85
2021/10/11 05:40:41;;;;;;;32.73;27.57;;;4.50;99.90;;;;;;5021617;28;20385;-86
2021/10/11 05:43:07;;;;;;;30.43;27.00;;;4.50;99.90;;;;;;5017968;28;20445;-84
2021/10/11 05:45:33;;;;;;;29.70;26.50;;;4.60;99.90;;;;;;5033050;28;20410;-85
2021/10/11 05:47:59;;;;;;;29.70;26.45;;;4.60;99.90;;;;;;5046598;28;20744;-85
2021/10/11 05:50:25;;;;;;;30.23;27.02;;;4.70;99.90;;;;;;5014144;28;20381;-85
2021/10/11 05:52:50;;;;;;;34.45;29.48;;;4.70;99.90;;;;;;5015798;28;20382;-85
2021/10/11 05:55:16;;;;;;;34.30;30.63;;;4.70;99.90;;;;;;5033770;28;20408;-85
2021/10/11 05:57:42;;;;;;;33.33;29.73;;;4.70;99.90;;;;;;5014934;28;20417;-85
2021/10/11 06:00:09;;;;;;;35.23;31.00;;;4.80;99.90;;;;;;5015653;28;20415;-84
2021/10/11 06:02:34;;;;;;;35.13;30.67;;;4.80;99.90;;;;;;5015824;28;20871;-85
2021/10/11 06:05:01;;;;;;;33.37;29.77;;;4.90;99.90;;;;;;5014493;28;20449;-85
2021/10/11 06:07:27;;;;;;;32.50;29.00;;;5.00;99.90;;;;;;5014470;28;20908;-85
2021/10/11 06:09:53;;;;;;;32.67;29.20;;;5.10;99.90;;;;;;5014060;28;20441;-84
2021/10/11 06:12:19;;;;;;;32.65;29.33;;;5.20;99.90;;;;;;5014081;28;20374;-84
2021/10/11 06:14:44;;;;;;;31.70;28.40;;;5.30;99.90;;;;;;5013557;28;20377;-84
2021/10/11 06:17:10;;;;;;;49.73;30.40;;;5.40;99.90;;;;;;5013260;28;20816;-85
2021/10/11 06:19:36;;;;;;;56.67;31.60;;;5.60;99.90;;;;;;5012911;28;20853;-86
2021/10/11 06:22:01;;;;;;;47.23;30.57;;;5.70;99.90;;;;;;5013330;28;20372;-84
2021/10/11 06:24:27;;;;;;;44.97;31.50;;;5.90;99.90;;;;;;5030922;28;20381;-84
2021/10/11 06:26:53;;;;;;;43.10;30.17;;;6.00;99.90;;;;;;5013164;28;20444;-84
2021/10/11 06:29:18;;;;;;;36.10;29.17;;;6.10;99.90;;;;;;5030005;28;20640;-85
2021/10/11 06:31:44;;;;;;;35.17;29.73;;;6.20;99.90;;;;;;5030696;28;20400;-83
2021/10/11 06:34:09;;;;;;;35.37;30.10;;;6.30;99.90;;;;;;5012680;28;20377;-84
2021/10/11 06:36:35;;;;;;;33.85;30.05;;;6.40;99.90;;;;;;5012819;28;20788;-84
2021/10/11 06:39:03;;;;;;;33.28;29.55;;;6.50;99.90;;;;;;5012654;28;20393;-84
2021/10/11 06:41:29;;;;;;;34.45;30.40;;;6.50;99.90;;;;;;5030554;28;20409;-84
2021/10/11 06:43:55;;;;;;;40.33;33.50;;;6.60;99.90;;;;;;5030811;28;20382;-84
2021/10/11 06:46:21;;;;;;;36.20;32.03;;;6.70;99.90;;;;;;5030455;28;20959;-84
2021/10/11 06:48:46;;;;;;;39.13;34.28;;;6.80;99.90;;;;;;5012694;28;20393;-84
2021/10/11 06:51:12;;;;;;;36.15;31.08;;;6.80;99.90;;;;;;5030839;28;20373;-84
2021/10/11 06:53:38;;;;;;;38.27;31.93;;;7.00;99.90;;;;;;5030722;28;20464;-84
2021/10/11 06:56:04;;;;;;;39.07;33.23;;;7.10;99.90;;;;;;5031063;28;20887;-84
2021/10/11 06:58:30;;;;;;;38.88;32.75;;;7.20;99.90;;;;;;5013988;28;20373;-84
2021/10/11 07:00:55;;;;;;;42.33;35.57;;;7.30;99.90;;;;;;5030314;28;20384;-84
2021/10/11 07:03:25;;;;;;;41.50;35.60;;;7.40;99.90;;;;;;5012488;28;20429;-84
2021/10/11 07:05:56;;;;;;;41.85;35.05;;;7.50;99.90;;;;;;5012872;28;20385;-82
2021/10/11 07:08:22;;;;;;;43.15;35.72;;;7.60;99.90;;;;;;5030613;28;20401;-84
2021/10/11 07:10:47;;;;;;;46.00;36.35;;;7.70;99.90;;;;;;5034187;28;20435;-84
2021/10/11 07:13:13;;;;;;;40.00;33.63;;;7.80;99.90;;;;;;5016702;28;20475;-84
2021/10/11 07:15:39;;;;;;;40.73;35.70;;;7.90;99.90;;;;;;5017598;28;20382;-84
2021/10/11 07:18:04;;;;;;;41.08;35.65;;;8.00;99.90;;;;;;5017710;28;20455;-84
2021/10/11 07:20:30;;;;;;;40.85;35.50;;;8.10;99.90;;;;;;5035846;28;20805;-84
2021/10/11 07:22:56;;;;;;;40.77;35.60;;;8.20;99.90;;;;;;5035166;28;20396;-84
2021/10/11 07:25:21;;;;;;;41.60;36.27;;;8.30;99.90;;;;;;5018081;28;20553;-85
2021/10/11 07:27:47;;;;;;;42.42;35.67;;;8.50;99.90;;;;;;5016967;28;20385;-83
2021/10/11 07:30:13;;;;;;;42.53;37.28;;;8.50;99.90;;;;;;5034809;28;20370;-84
2021/10/11 07:32:39;;;;;;;43.07;35.40;;;8.50;99.90;;;;;;5034281;28;20370;-83
2021/10/11 07:35:04;;;;;;;40.93;35.07;;;8.60;99.90;;;;;;5016414;28;20867;-85
2021/10/11 07:37:30;;;;;;;41.13;34.50;;;8.70;99.90;;;;;;5015834;28;20385;-85
2021/10/11 07:39:55;;;;;;;43.23;35.40;;;8.80;99.90;;;;;;5015617;28;20382;-85
2021/10/11 07:42:21;;;;;;;43.57;36.47;;;8.90;99.90;;;;;;5016211;28;20380;-84
2021/10/11 07:44:47;;;;;;;39.60;35.28;;;9.00;99.90;;;;;;5015590;28;20365;-83
2021/10/11 07:47:12;;;;;;;41.63;34.63;;;9.10;99.90;;;;;;5033265;28;20460;-83
2021/10/11 07:49:38;;;;;;;43.63;37.53;;;9.20;99.90;;;;;;5033479;28;20843;-83
2021/10/11 07:52:04;;;;;;;47.30;40.47;;;9.30;99.90;;;;;;5033675;28;20381;-84
2021/10/11 07:54:29;;;;;;;45.90;40.95;;;9.40;99.90;;;;;;5014992;28;20894;-84
2021/10/11 07:56:55;;;;;;;48.60;40.40;;;9.30;99.90;;;;;;5016143;28;20384;-85
2021/10/11 07:59:21;;;;;;;46.93;39.33;;;9.30;99.90;;;;;;5034586;28;20862;-84
2021/10/11 08:01:46;;;;;;;48.10;40.63;;;9.30;99.90;;;;;;5033815;28;20386;-83
2021/10/11 08:04:12;;;;;;;49.28;41.05;;;9.30;99.90;;;;;;5027818;28;20391;-84
2021/10/11 08:06:38;;;;;;;53.27;42.57;;;9.30;99.90;;;;;;5016423;28;20518;-84
2021/10/11 08:09:04;;;;;;;47.28;39.30;;;9.30;99.90;;;;;;5033515;28;20433;-84
2021/10/11 08:11:30;;;;;;;53.13;44.27;;;9.40;99.90;;;;;;5015639;28;20469;-84
2021/10/11 08:13:57;;;;;;;51.03;41.67;;;9.40;99.90;;;;;;5033808;28;20373;-85
2021/10/11 08:16:22;;;;;;;48.67;40.20;;;9.50;99.90;;;;;;5015453;28;20412;-84
2021/10/11 08:18:48;;;;;;;53.15;43.20;;;9.60;99.90;;;;;;5032949;28;20369;-84
2021/10/11 08:21:13;;;;;;;46.53;37.53;;;9.70;99.90;;;;;;5033501;28;20376;-85
2021/10/11 08:23:41;;;;;;;45.58;38.53;;;9.90;99.90;;;;;;5034047;28;20412;-84
2021/10/11 08:26:11;;;;;;;47.50;40.38;;;10.10;99.90;;;;;;5033787;28;20385;-84
2021/10/11 08:28:38;;;;;;;45.08;38.33;;;10.20;99.90;;;;;;5029515;28;20445;-84
2021/10/11 08:31:03;;;;;;;51.17;42.35;;;10.30;99.90;;;;;;5008792;28;20375;-83
2021/10/11 08:33:29;;;;;;;49.40;41.03;;;10.20;99.90;;;;;;5031486;28;20424;-84
2021/10/11 08:35:55;;;;;;;56.03;44.45;;;10.20;99.90;;;;;;5018753;28;20875;-84
2021/10/11 08:38:20;;;;;;;55.70;43.20;;;10.20;99.90;;;;;;5013957;28;20860;-86
2021/10/11 08:40:47;;;;;;;55.40;44.45;;;10.30;99.90;;;;;;5029883;28;20371;-83
2021/10/11 08:43:13;;;;;;;55.55;43.58;;;10.30;99.90;;;;;;5014394;28;20383;-84
2021/10/11 08:45:42;;;;;;;52.85;43.47;;;10.40;99.90;;;;;;5020230;28;20374;-83
2021/10/11 08:48:08;;;;;;;50.57;42.03;;;10.50;99.90;;;;;;5028156;28;20501;-84
2021/10/11 08:50:34;;;;;;;52.60;42.15;;;10.60;99.90;;;;;;5023357;28;20373;-83
2021/10/11 08:53:00;;;;;;;50.50;41.17;;;10.80;99.90;;;;;;5019052;28;20481;-84
2021/10/11 08:55:25;;;;;;;46.90;40.03;;;11.00;99.90;;;;;;5017452;28;20449;-84
2021/10/11 08:58:00;;;;;;;47.28;40.10;;;11.10;99.90;;;;;;5018386;28;20451;-84
2021/10/11 09:00:26;;;;;;;53.30;41.22;;;11.20;99.90;;;;;;5017746;28;20886;-85
2021/10/11 09:02:52;;;;;;;49.80;40.05;;;11.30;99.90;;;;;;5033314;28;20460;-84
2021/10/11 09:05:25;;;;;;;48.63;38.20;;;11.40;99.90;;;;;;5017359;28;20377;-85
2021/10/11 09:08:10;;;;;;;47.23;39.43;;;11.60;99.90;;;;;;5035350;28;20385;-83
2021/10/11 09:10:53;;;;;;;51.63;40.33;;;11.60;99.90;;;;;;5018032;28;20501;-83
2021/10/11 09:13:22;;;;;;;45.97;38.45;;;11.60;99.90;;;;;;5017873;28;20396;-84
2021/10/11 09:19:15;;;;;;;43.13;35.63;;;12.10;99.90;;;;;;5031283;28;20395;-86
2021/10/11 09:21:42;;;;;;;45.25;36.47;;;12.30;99.90;;;;;;5034971;28;20776;-84
2021/10/11 09:24:11;;;;;;;39.75;33.35;;;12.40;99.90;;;;;;5016072;28;20409;-83
2021/10/11 09:26:55;;;;;;;43.40;34.42;;;12.60;99.90;;;;;;5014671;28;20386;-84
2021/10/11 09:29:32;;;;;;;42.97;34.30;;;12.70;99.90;;;;;;5032103;28;20393;-84
2021/10/11 09:32:00;;;;;;;41.55;35.13;;;12.50;99.90;;;;;;5013737;28;20751;-83
2021/10/11 09:34:26;;;;;;;39.30;32.45;;;12.70;99.90;;;;;;5032891;28;20868;-84
2021/10/11 09:37:00;;;;;;;40.28;32.35;;;13.00;99.90;;;;;;5043945;28;20387;-84
2021/10/11 09:39:27;;;;;;;39.33;31.75;;;13.10;99.90;;;;;;5013282;28;20774;-83
2021/10/11 09:41:54;;;;;;;41.95;33.03;;;13.10;99.90;;;;;;5031928;28;20369;-83
2021/10/11 09:44:21;;;;;;;43.15;32.75;;;12.80;99.90;;;;;;5031166;28;20427;-84
2021/10/11 09:46:47;;;;;;;40.72;31.77;;;12.70;99.90;;;;;;5009417;28;20433;-84
2021/10/11 09:49:14;;;;;;;40.83;31.50;;;12.70;99.90;;;;;;5022516;28;20397;-81
2021/10/11 09:51:41;;;;;;;38.55;31.80;;;12.50;99.90;;;;;;5021281;28;20422;-84
2021/10/11 09:54:08;;;;;;;38.42;32.85;;;12.30;99.90;;;;;;5022124;28;20377;-84
2021/10/11 09:56:33;;;;;;;41.55;33.15;;;12.40;99.90;;;;;;5001979;28;20475;-84
2021/10/11 09:59:02;;;;;;;41.58;33.20;;;12.40;99.90;;;;;;5002665;28;20849;-84
2021/10/11 10:01:30;;;;;;;42.17;31.95;;;12.50;99.90;;;;;;5001009;28;20529;-85
2021/10/11 10:03:57;;;;;;;40.83;30.83;;;12.40;99.90;;;;;;5022480;28;20384;-84
2021/10/11 10:06:28;;;;;;;38.42;29.60;;;12.40;99.90;;;;;;5022269;28;20452;-84
2021/10/11 10:08:56;;;;;;;36.00;28.20;;;12.60;99.90;;;;;;5005075;28;20763;-84
2021/10/11 10:11:30;;;;;;;37.65;28.40;;;12.60;99.90;;;;;;5019226;28;20452;-85
2021/10/11 10:13:56;;;;;;;35.50;27.77;;;12.80;99.90;;;;;;5019992;28;20404;-87
2021/10/11 10:16:22;;;;;;;39.08;25.52;;;12.90;99.90;;;;;;5003949;28;20440;-84
2021/10/11 10:18:48;;;;;;;34.65;26.00;;;13.10;99.90;;;;;;5015938;28;20419;-84
2021/10/11 10:21:16;;;;;;;33.00;26.50;;;13.20;99.90;;;;;;4998980;28;20770;-84
2021/10/11 10:23:44;;;;;;;32.53;24.38;;;13.30;99.90;;;;;;4997541;28;20391;-86
2021/10/11 10:26:12;;;;;;;34.25;24.73;;;13.30;99.90;;;;;;5022340;28;20795;-85
2021/10/11 10:28:54;;;;;;;32.97;23.67;;;13.40;99.90;;;;;;5017087;28;20890;-86
2021/10/11 10:31:28;;;;;;;30.63;21.48;;;13.30;99.90;;;;;;5009580;28;20389;-84
2021/10/11 10:34:03;;;;;;;32.75;23.38;;;13.50;99.90;;;;;;5010837;28;20429;-86
2021/10/11 10:36:30;;;;;;;34.13;23.50;;;13.60;99.90;;;;;;5030355;28;20384;-83
2021/10/11 10:39:15;;;;;;;32.23;21.93;;;13.80;99.90;;;;;;5027229;28;20389;-85
2021/10/11 10:41:54;;;;;;;29.83;21.10;;;13.70;99.90;;;;;;5032506;28;20451;-84
2021/10/11 10:44:21;;;;;;;35.67;23.40;;;13.80;99.90;;;;;;5006640;28;20448;-83
2021/10/11 10:46:56;;;;;;;33.30;22.48;;;13.80;99.90;;;;;;5023924;28;20482;-86
2021/10/11 10:49:47;;;;;;;30.35;22.70;;;13.80;99.90;;;;;;5017283;28;20437;-84
2021/10/11 10:52:19;;;;;;;33.30;23.35;;;13.80;99.90;;;;;;4997983;28;20412;-82
2021/10/11 10:54:49;;;;;;;33.25;24.25;;;13.80;99.90;;;;;;5005147;28;20401;-84
2021/10/11 10:57:21;;;;;;;31.40;22.45;;;14.00;99.90;;;;;;5023158;28;20378;-84
2021/10/11 10:59:55;;;;;;;29.00;19.60;;;14.20;99.90;;;;;;5023882;28;20367;-85
2021/10/11 11:02:22;;;;;;;24.70;18.05;;;14.20;99.90;;;;;;5021951;28;20385;-83
2021/10/11 11:04:55;;;;;;;24.98;17.02;;;14.40;99.90;;;;;;5004789;28;20483;-85
2021/10/11 11:07:28;;;;;;;24.63;16.58;;;14.60;99.90;;;;;;5036371;28;20491;-84
2021/10/11 11:09:54;;;;;;;27.92;16.95;;;14.90;99.90;;;;;;5024076;28;20393;-83
2021/10/11 11:12:33;;;;;;;24.52;16.75;;;15.00;99.90;;;;;;5023674;28;20393;-85
2021/10/11 11:15:02;;;;;;;24.05;15.45;;;15.00;99.90;;;;;;5004277;28;20456;-85
2021/10/11 11:17:32;;;;;;;25.20;15.02;;;14.90;99.90;;;;;;5022589;28;20386;-85
2021/10/11 11:19:58;;;;;;;25.10;16.30;;;14.80;99.90;;;;;;5037130;28;20388;-85
2021/10/11 11:22:32;;;;;;;26.10;17.17;;;14.80;99.90;;;;;;5024332;28;20749;-85
2021/10/11 11:25:03;;;;;;;25.23;16.48;;;14.90;99.90;;;;;;5020535;28;20383;-84
2021/10/11 11:27:34;;;;;;;23.40;15.07;;;14.90;99.90;;;;;;5021379;28;20377;-84
2021/10/11 11:30:07;;;;;;;24.50;16.17;;;14.90;99.90;;;;;;5034240;28;20408;-82
2021/10/11 11:32:47;;;;;;;25.07;15.93;;;15.00;99.90;;;;;;5041381;28;20462;-87
2021/10/11 11:35:29;;;;;;;24.42;14.88;;;15.00;99.90;;;;;;5018373;28;20381;-85
2021/10/11 11:37:57;;;;;;;25.90;16.10;;;14.80;99.90;;;;;;5037382;28;20371;-85
2021/10/11 11:40:26;;;;;;;23.97;14.77;;;14.60;99.90;;;;;;5035089;28;20371;-84
2021/10/11 11:42:53;;;;;;;23.95;12.30;;;14.60;99.90;;;;;;5039512;28;20396;-86
2021/10/11 11:45:21;;;;;;;18.50;11.55;;;14.70;99.90;;;;;;5026566;28;20441;-84
2021/10/11 11:47:48;;;;;;;23.27;13.02;;;14.90;99.90;;;;;;4999692;28;20469;-84
2021/10/11 11:50:22;;;;;;;23.20;13.18;;;14.90;99.90;;;;;;5020771;28;20402;-84
2021/10/11 11:52:57;;;;;;;19.90;12.35;;;15.00;99.90;;;;;;5034473;28;20381;-85
2021/10/11 11:55:23;;;;;;;21.17;13.30;;;15.00;99.90;;;;;;5016703;28;21076;-85
2021/10/11 11:57:48;;;;;;;22.73;13.45;;;15.00;99.90;;;;;;5034992;28;20472;-85
2021/10/11 12:00:15;;;;;;;19.90;11.73;;;15.00;99.90;;;;;;5017309;28;20424;-85
2021/10/11 12:02:43;;;;;;;17.10;11.32;;;15.00;99.90;;;;;;5015812;28;20881;-84
2021/10/11 12:05:10;;;;;;;23.20;12.00;;;14.90;99.90;;;;;;5009416;28;20440;-85
2021/10/11 12:07:39;;;;;;;18.83;11.40;;;14.90;99.90;;;;;;5004056;28;20385;-85
2021/10/11 12:10:06;;;;;;;19.95;11.00;;;14.90;99.90;;;;;;5002687;28;20484;-86
2021/10/11 12:12:36;;;;;;;20.45;11.13;;;14.90;99.90;;;;;;5025439;28;20400;-84
2021/10/11 12:15:03;;;;;;;20.70;11.52;;;15.00;99.90;;;;;;5024529;28;20781;-86
2021/10/11 12:17:40;;;;;;;19.92;11.00;;;15.00;99.90;;;;;;5001991;28;20908;-87
2021/10/11 12:20:08;;;;;;;23.77;12.02;;;15.00;99.90;;;;;;5002627;28;20867;-86
2021/10/11 12:22:34;;;;;;;20.27;12.75;;;14.80;99.90;;;;;;5016895;28;20465;-84
2021/10/11 12:25:02;;;;;;;21.33;12.15;;;14.70;99.90;;;;;;5035381;28;20457;-86
2021/10/11 12:27:28;;;;;;;22.08;11.82;;;14.70;99.90;;;;;;5022979;28;20381;-85
2021/10/11 12:29:54;;;;;;;21.05;12.00;;;14.70;99.90;;;;;;5005115;28;20735;-86
2021/10/11 12:32:32;;;;;;;19.45;11.73;;;14.70;99.90;;;;;;5004043;28;20469;-88
2021/10/11 12:35:00;;;;;;;19.95;10.80;;;14.70;99.90;;;;;;5023940;28;20383;-88
2021/10/11 12:37:34;;;;;;;19.60;11.57;;;14.90;99.90;;;;;;5005182;28;20398;-86